Time;durP1;ratioP1;P1;durP2;ratioP2;P2;SDS_P1;SDS_P2;PMS_P1;PMS_P2;Temp;Humidity;BMP_temperature;BMP_pressure;BME280_temperature;BME280_humidity;BME280_pressure;Samples;Min_cycle;Max_cycle;Signal;HPM_P1;HPM_P2
2022/05/02 00:00:24;;;;;;;;;;;;;;;;;;;;;
2022/05/02 00:03:09;;;;;;;;;;;;;;;19.34;48.35;101253.98;101825;1344;75890;-83
2022/05/02 00:05:59;;;;;;;;;;;;;;;19.34;48.29;101253.61;101786;1341;61233;-84
2022/05/02 00:09:04;;;;;;;;;;;;;;;19.33;48.33;101253.98;101840;1341;61217;-81
2022/05/02 00:11:53;;;;;;;;;;;;;;;19.34;48.34;101252.02;101798;1343;71935;-86
2022/05/02 00:14:39;;;;;;;;;;;;;;;19.33;48.39;101249.88;101801;1342;75799;-83
2022/05/02 00:17:56;;;;;;;;;;;;;;;19.33;48.26;101253.45;101880;1338;61256;-85
2022/05/02 00:20:31;;;;;;;;;;;;;;;19.33;48.36;101250.27;101927;1340;61486;-85
2022/05/02 00:23:26;;;;;;;;;;;;;;;19.33;48.33;101249.58;101914;1340;72833;-83
2022/05/02 00:26:08;;;;;;;;;;;;;;;19.32;48.31;101246.72;101887;1341;75134;-87
2022/05/02 00:28:47;;;;;;;;;;;;;;;19.33;48.25;101249.55;101900;1341;61346;-83
2022/05/02 00:32:12;;;;;;;;;;;;;;;;;;;;;
2022/05/02 00:34:49;;;;;;;;;;;;;;;19.33;48.33;101249.20;101784;1341;73801;-84
2022/05/02 00:38:01;;;;;;;;;;;;;;;19.33;48.30;101252.78;101929;1338;74246;-84
2022/05/02 00:40:54;;;;;;;;;;;;;;;19.32;48.29;101255.83;101953;1337;61488;-83
2022/05/02 00:46:52;;;;;;;;;;;;;;;19.32;48.33;101255.29;101521;1350;72856;-85
2022/05/02 00:49:38;;;;;;;;;;;;;;;19.32;48.27;101255.67;101523;1350;75863;-85
2022/05/02 00:52:16;;;;;;;;;;;;;;;19.32;48.23;101252.66;101517;1349;61290;-83
2022/05/02 00:55:10;;;;;;;;;;;;;;;19.32;48.19;101254.43;101497;1350;61342;-84
2022/05/02 00:57:55;;;;;;;;;;;;;;;19.32;48.21;101253.58;101509;1350;74513;-85
2022/05/02 01:00:52;;;;;;;;;;;;;;;;;;;;;
2022/05/02 01:03:49;;;;;;;;;;;;;;;19.31;48.19;101254.13;101624;1346;61826;-86
2022/05/02 01:09:45;;;;;;;;;;;;;;;19.31;48.19;101255.57;101721;1343;74317;-81
2022/05/02 01:12:41;;;;;;;;;;;;;;;19.31;48.14;101255.56;101685;1344;75932;-81
2022/05/02 01:15:27;;;;;;;;;;;;;;;19.31;48.20;101256.83;101605;1348;61450;-85
2022/05/02 01:18:13;;;;;;;;;;;;;;;19.30;48.21;101255.94;101605;1348;61229;-87
2022/05/02 01:21:40;;;;;;;;;;;;;;;19.30;48.14;101255.43;101712;1340;71655;-85
2022/05/02 01:24:15;;;;;;;;;;;;;;;;;;;;;
2022/05/02 01:27:15;;;;;;;;;;;;;;;19.30;48.18;101259.87;102183;1335;61399;-79
2022/05/02 01:30:03;;;;;;;;;;;;;;;19.30;48.15;101258.48;102156;1335;61349;-82
2022/05/02 01:32:48;;;;;;;;;;;;;;;19.30;48.13;101255.80;102128;1335;73747;-82
2022/05/02 01:35:48;;;;;;;;;;;;;;;;;;;;;
2022/05/02 01:38:40;;;;;;;;;;;;;;;19.29;48.15;101248.02;102142;1335;61084;-86
2022/05/02 01:41:33;;;;;;;;;;;;;;;19.29;48.10;101247.27;102184;1335;61326;-83
2022/05/02 01:44:19;;;;;;;;;;;;;;;19.29;48.12;101246.59;102176;1335;73033;-83
2022/05/02 01:47:07;;;;;;;;;;;;;;;;;;;;;
2022/05/02 01:50:00;;;;;;;;;;;;;;;19.28;48.08;101245.20;102236;1335;61333;-86
2022/05/02 01:52:48;;;;;;;;;;;;;;;19.28;48.11;101240.73;102566;1329;61458;-85
2022/05/02 01:55:37;;;;;;;;;;;;;;;19.28;48.13;101238.27;102638;1329;72871;-84
2022/05/02 01:58:25;;;;;;;;;;;;;;;19.28;48.09;101237.20;102553;1332;75924;-82
2022/05/02 02:01:30;;;;;;;;;;;;;;;19.27;48.14;101241.67;102312;1332;61345;-84
2022/05/02 02:07:40;;;;;;;;;;;;;;;19.27;48.11;101251.50;102465;1331;70464;-89
2022/05/02 02:10:26;;;;;;;;;;;;;;;19.26;48.04;101248.30;102539;1331;74582;-82
2022/05/02 02:13:03;;;;;;;;;;;;;;;19.26;48.12;101242.41;102527;1332;62402;-85
2022/05/02 02:15:58;;;;;;;;;;;;;;;19.26;48.03;101245.46;102525;1332;61581;-80
2022/05/02 02:18:42;;;;;;;;;;;;;;;;;;;;;
2022/05/02 02:21:26;;;;;;;;;;;;;;;;;;;;;
2022/05/02 02:24:39;;;;;;;;;;;;;;;19.25;48.04;101251.39;102376;1331;61350;-83
2022/05/02 02:27:55;;;;;;;;;;;;;;;19.25;48.07;101250.86;102557;1332;61460;-79
2022/05/02 02:30:35;;;;;;;;;;;;;;;19.25;48.03;101251.76;102529;1332;72685;-84
2022/05/02 02:33:28;;;;;;;;;;;;;;;;;;;;;
2022/05/02 02:35:54;;;;;;;;;;;;;;;19.25;48.04;101248.76;102577;1332;61184;-81
2022/05/02 02:39:00;;;;;;;;;;;;;;;;;;;;;
2022/05/02 02:41:51;;;;;;;;;;;;;;;;;;;;;
2022/05/02 02:44:36;;;;;;;;;;;;;;;19.24;47.95;101242.88;103378;1316;74909;-80
2022/05/02 02:47:18;;;;;;;;;;;;;;;19.24;48.02;101236.83;104669;1306;61780;-83
2022/05/02 02:49:59;;;;;;;;;;;;;;;19.23;47.90;101237.41;104715;1306;61611;-86
2022/05/02 02:53:00;;;;;;;;;;;;;;;;;;;;;
2022/05/02 02:56:07;;;;;;;;;;;;;;;19.23;48.04;101237.40;104536;1306;76216;-86
2022/05/02 02:58:52;;;;;;;;;;;;;;;19.24;47.80;101243.45;104700;1306;61307;-85
2022/05/02 03:01:54;;;;;;;;;;;;;;;;;;;;;
2022/05/02 03:07:39;;;;;;;;;;;;;;;19.22;47.79;101231.05;104841;1306;73538;-89
2022/05/02 03:10:28;;;;;;;;;;;;;;;19.23;48.12;101236.38;104735;1306;61262;-87
2022/05/02 03:13:08;;;;;;;;;;;;;;;19.22;47.90;101238.17;104897;1306;61246;-83
2022/05/02 03:16:02;;;;;;;;;;;;;;;19.23;47.99;101235.14;104620;1306;73970;-84
2022/05/02 03:18:46;;;;;;;;;;;;;;;19.22;48.08;101237.83;104914;1306;75808;-81
2022/05/02 03:21:15;;;;;;;;;;;;;;;19.22;48.02;101237.68;104917;1306;60451;-85
2022/05/02 03:24:24;;;;;;;;;;;;;;;19.22;47.82;101232.84;104242;1313;61173;-84
2022/05/02 03:27:30;;;;;;;;;;;;;;;19.22;47.88;101228.58;104125;1316;73215;-82
2022/05/02 03:30:08;;;;;;;;;;;;;;;19.21;48.01;101229.48;104119;1316;74802;-85
2022/05/02 03:33:02;;;;;;;;;;;;;;;19.22;47.98;101230.02;104170;1316;61327;-84
2022/05/02 03:35:42;;;;;;;;;;;;;;;19.21;47.69;101225.91;104137;1316;61280;-85
2022/05/02 03:38:41;;;;;;;;;;;;;;;19.22;47.85;101226.27;103943;1316;71492;-83
2022/05/02 03:41:47;;;;;;;;;;;;;;;19.22;48.02;101224.65;104056;1316;73414;-82
2022/05/02 03:44:46;;;;;;;;;;;;;;;19.22;47.87;101225.89;103165;1323;61050;-84
2022/05/02 03:47:23;;;;;;;;;;;;;;;;;;;;;
2022/05/02 03:50:24;;;;;;;;;;;;;;;;;;;;;
2022/05/02 03:52:55;;;;;;;;;;;;;;;19.22;47.81;101224.27;102973;1323;75161;-84
2022/05/02 03:55:41;;;;;;;;;;;;;;;19.22;47.72;101225.16;102999;1325;61313;-84
2022/05/02 03:58:16;;;;;;;;;;;;;;;19.22;47.68;101229.08;103239;1319;61382;-83
2022/05/02 04:00:55;;;;;;;;;;;;;;;;;;;;;
2022/05/02 04:03:41;;;;;;;;;;;;;;;19.22;47.71;101228.57;104129;1316;74987;-85
2022/05/02 04:06:39;;;;;;;;;;;;;;;19.21;47.58;101226.31;104204;1316;61291;-85
2022/05/02 04:09:13;;;;;;;;;;;;;;;19.20;47.68;101221.17;103386;1320;61267;-84
2022/05/02 04:12:19;;;;;;;;;;;;;;;19.19;47.44;101221.05;103250;1320;71556;-89
2022/05/02 04:14:54;;;;;;;;;;;;;;;19.18;47.41;101215.94;103341;1320;74722;-83
2022/05/02 04:17:59;;;;;;;;;;;;;;;;;;;;;
2022/05/02 04:20:51;;;;;;;;;;;;;;;19.17;47.09;101213.14;103368;1317;61657;-83
2022/05/02 04:23:35;;;;;;;;;;;;;;;19.17;47.16;101212.98;104098;1316;72732;-90
2022/05/02 04:26:32;;;;;;;;;;;;;;;19.16;46.89;101210.69;104118;1314;75702;-82
2022/05/02 04:28:57;;;;;;;;;;;;;;;19.15;46.93;101211.29;103923;1314;61514;-82
2022/05/02 04:31:33;;;;;;;;;;;;;;;19.15;46.96;101214.70;104033;1314;61340;-84
2022/05/02 04:34:01;;;;;;;;;;;;;;;19.14;46.90;101213.88;103951;1317;73838;-82
2022/05/02 04:36:32;;;;;;;;;;;;;;;19.13;46.70;101221.41;103864;1315;74868;-83
2022/05/02 04:38:58;;;;;;;;;;;;;;;19.12;46.52;101220.95;103800;1315;61087;-85
2022/05/02 04:41:23;;;;;;;;;;;;;;;19.10;46.47;101223.17;103971;1314;61594;-82
2022/05/02 04:43:52;;;;;;;;;;;;;;;19.08;46.36;101224.51;103958;1314;61318;-80
2022/05/02 04:46:19;;;;;;;;;;;;;;;19.07;46.15;101226.91;104033;1304;73750;-80
2022/05/02 04:48:44;;;;;;;;;;;;;;;19.05;46.05;101228.08;104500;1306;61401;-83
2022/05/02 04:51:11;;;;;;;;;;;;;;;19.03;45.80;101223.90;104455;1306;60932;-80
2022/05/02 04:53:39;;;;;;;;;;;;;;;19.02;45.76;101228.08;104479;1306;73944;-82
2022/05/02 04:56:05;;;;;;;;;;;;;;;19.00;45.62;101229.83;104503;1306;61262;-80
2022/05/02 04:58:30;;;;;;;;;;;;;;;18.90;45.48;101229.09;104531;1306;60569;-81
2022/05/02 05:00:56;;;;;;;;;;;;;;;18.84;45.36;101228.70;104398;1306;61333;-80
2022/05/02 05:03:21;;;;;;;;;;;;;;;18.83;45.27;101229.09;104383;1306;60245;-80
2022/05/02 05:05:49;;;;;;;;;;;;;;;18.80;45.08;101231.95;104453;1306;61428;-80
2022/05/02 05:08:14;;;;;;;;;;;;;;;18.80;44.91;101231.06;104211;1305;75926;-82
2022/05/02 05:10:53;;;;;;;;;;;;;;;18.83;44.92;101229.65;104301;1306;61304;-80
2022/05/02 05:13:29;;;;;;;;;;;;;;;18.86;44.72;101227.14;104431;1306;62430;-82
2022/05/02 05:16:24;;;;;;;;;;;;;;;18.88;44.62;101227.92;104431;1306;75413;-82
2022/05/02 05:19:13;;;;;;;;;;;;;;;18.93;44.65;101231.45;104702;1305;74763;-80
2022/05/02 05:21:50;;;;;;;;;;;;;;;18.96;44.58;101229.31;104385;1306;61067;-81
2022/05/02 05:24:34;;;;;;;;;;;;;;;18.99;44.53;101228.45;104377;1306;61468;-79
2022/05/02 05:27:03;;;;;;;;;;;;;;;19.02;44.55;101228.45;104406;1306;72946;-81
2022/05/02 05:29:37;;;;;;;;;;;;;;;19.04;44.52;101229.05;104349;1306;75661;-80
2022/05/02 05:32:06;;;;;;;;;;;;;;;19.06;44.33;101227.31;104313;1306;61913;-81
2022/05/02 05:34:41;;;;;;;;;;;;;;;19.08;44.27;101225.77;104225;1305;61221;-81
2022/05/02 05:37:10;;;;;;;;;;;;;;;19.11;44.05;101226.19;104101;1306;73948;-82
2022/05/02 05:39:46;;;;;;;;;;;;;;;19.11;43.88;101222.77;104265;1305;76199;-81
2022/05/02 05:42:15;;;;;;;;;;;;;;;19.13;43.86;101226.05;103885;1306;61159;-80
2022/05/02 05:44:49;;;;;;;;;;;;;;;19.14;43.78;101223.88;103878;1306;61201;-81
2022/05/02 05:47:22;;;;;;;;;;;;;;;19.15;43.61;101225.77;103948;1306;72210;-82
2022/05/02 05:50:06;;;;;;;;;;;;;;;19.16;43.95;101225.50;103863;1306;74850;-81
2022/05/02 05:52:52;;;;;;;;;;;;;;;19.17;43.58;101229.56;103717;1306;61773;-82
2022/05/02 05:55:39;;;;;;;;;;;;;;;19.00;42.84;101229.80;103682;1306;63522;-79
2022/05/02 05:58:23;;;;;;;;;;;;;;;18.83;42.59;101229.46;103781;1306;73042;-82
2022/05/02 06:00:49;;;;;;;;;;;;;;;18.64;42.38;101232.06;103876;1306;75974;-80
2022/05/02 06:03:15;;;;;;;;;;;;;;;18.29;41.47;101234.63;104738;1309;60131;-81
2022/05/02 06:05:46;;;;;;;;;;;;;;;17.99;41.28;101237.09;104461;1306;61215;-81
2022/05/02 06:08:21;;;;;;;;;;;;;;;17.90;41.37;101234.83;104605;1306;72781;-82
2022/05/02 06:10:47;;;;;;;;;;;;;;;18.00;41.47;101235.24;104404;1306;77571;-82
2022/05/02 06:13:14;;;;;;;;;;;;;;;18.14;41.61;101235.06;104531;1306;59790;-81
2022/05/02 06:18:27;;;;;;;;;;;;;;;18.41;41.98;101232.21;104311;1305;72919;-81
2022/05/02 06:20:53;;;;;;;;;;;;;;;18.43;41.38;101233.20;104791;1306;75637;-82
2022/05/02 06:23:18;;;;;;;;;;;;;;;18.47;41.61;101224.45;104634;1306;60178;-81
2022/05/02 06:25:45;;;;;;;;;;;;;;;18.56;41.59;101226.10;104783;1305;61339;-82
2022/05/02 06:28:11;;;;;;;;;;;;;;;18.65;41.67;101227.20;104552;1306;61230;-82
2022/05/02 06:30:37;;;;;;;;;;;;;;;18.73;41.65;101227.84;104502;1306;60507;-80
2022/05/02 06:33:10;;;;;;;;;;;;;;;18.82;41.64;101230.73;104571;1306;59720;-80
2022/05/02 06:35:38;;;;;;;;;;;;;;;18.90;41.51;101231.42;104521;1306;59626;-79
2022/05/02 06:38:10;;;;;;;;;;;;;;;18.93;41.29;101231.95;104496;1306;73856;-80
2022/05/02 06:41:00;;;;;;;;;;;;;;;18.97;41.29;101232.67;104465;1306;75788;-80
2022/05/02 06:43:25;;;;;;;;;;;;;;;19.00;41.18;101230.38;104695;1306;61335;-79
2022/05/02 06:45:51;;;;;;;;;;;;;;;19.01;41.42;101225.98;104682;1306;61889;-81
2022/05/02 06:48:16;;;;;;;;;;;;;;;19.05;41.18;101229.16;104656;1305;59743;-81
2022/05/02 06:50:44;;;;;;;;;;;;;;;19.09;40.96;101224.30;104672;1305;60186;-81
2022/05/02 06:53:15;;;;;;;;;;;;;;;19.13;40.92;101228.72;103769;1306;938240;-80
2022/05/02 06:55:44;;;;;;;;;;;;;;;19.11;40.62;101230.25;104543;1306;61324;-80
2022/05/02 06:58:16;;;;;;;;;;;;;;;18.96;39.99;101231.77;104641;1305;73018;-80
2022/05/02 07:00:49;;;;;;;;;;;;;;;18.75;39.59;101230.41;104490;1306;75799;-81
2022/05/02 07:03:16;;;;;;;;;;;;;;;18.67;39.50;101230.70;104461;1306;61239;-82
2022/05/02 07:05:48;;;;;;;;;;;;;;;18.59;38.99;101231.27;105256;1306;60212;-81
2022/05/02 07:08:27;;;;;;;;;;;;;;;18.49;38.79;101223.45;105254;1306;73999;-81
2022/05/02 07:10:54;;;;;;;;;;;;;;;18.53;39.02;101223.91;105044;1306;75037;-82
2022/05/02 07:13:36;;;;;;;;;;;;;;;18.63;39.02;101229.81;105173;1306;60225;-82
2022/05/02 07:16:08;;;;;;;;;;;;;;;18.72;39.17;101222.92;105397;1306;60425;-82
2022/05/02 07:18:45;;;;;;;;;;;;;;;18.81;39.09;101225.09;105361;1305;72749;-82
2022/05/02 07:21:24;;;;;;;;;;;;;;;18.91;39.02;101226.52;105069;1306;74905;-83
2022/05/02 07:24:03;;;;;;;;;;;;;;;18.96;38.75;101223.42;104680;1306;61138;-82
2022/05/02 07:26:29;;;;;;;;;;;;;;;19.02;38.96;101228.09;104504;1306;61409;-82
2022/05/02 07:28:59;;;;;;;;;;;;;;;19.06;38.82;101225.89;104565;1304;74162;-82
2022/05/02 07:31:24;;;;;;;;;;;;;;;19.10;39.04;101229.79;104514;1306;75861;-82
2022/05/02 07:33:50;;;;;;;;;;;;;;;19.12;38.88;101233.77;104453;1306;61342;-81
2022/05/02 07:36:20;;;;;;;;;;;;;;;19.14;38.65;101237.05;104681;1305;61238;-80
2022/05/02 07:38:47;;;;;;;;;;;;;;;19.16;38.51;101237.66;104472;1306;71817;-81
2022/05/02 07:41:25;;;;;;;;;;;;;;;19.16;38.48;101236.02;104663;1306;73673;-84
2022/05/02 07:44:03;;;;;;;;;;;;;;;19.18;38.52;101235.41;104429;1306;62496;-82
2022/05/02 07:46:30;;;;;;;;;;;;;;;19.20;38.47;101231.58;104572;1306;61300;-82
2022/05/02 07:49:05;;;;;;;;;;;;;;;19.21;38.20;101227.38;104611;1306;73749;-82
2022/05/02 07:51:32;;;;;;;;;;;;;;;19.23;38.19;101228.36;104521;1306;74801;-81
2022/05/02 07:53:59;;;;;;;;;;;;;;;19.22;38.10;101228.02;104349;1306;61399;-82
2022/05/02 07:56:28;;;;;;;;;;;;;;;19.20;37.75;101230.30;104402;1306;61255;-82
2022/05/02 07:58:54;;;;;;;;;;;;;;;19.14;37.74;101229.55;104497;1306;71987;-82
2022/05/02 08:01:21;;;;;;;;;;;;;;;19.13;37.78;101227.66;104554;1306;75126;-81
2022/05/02 08:03:46;;;;;;;;;;;;;;;19.13;37.62;101223.54;104602;1306;61371;-81
2022/05/02 08:06:18;;;;;;;;;;;;;;;19.10;37.61;101217.29;104596;1306;59789;-83
2022/05/02 08:09:04;;;;;;;;;;;;;;;19.11;37.65;101214.57;104309;1306;71922;-81
2022/05/02 08:11:34;;;;;;;;;;;;;;;19.09;37.63;101214.64;103566;1306;74579;-81
2022/05/02 08:14:03;;;;;;;;;;;;;;;19.10;37.63;101220.33;105570;1306;61212;-81
2022/05/02 08:16:31;;;;;;;;;;;;;;;19.06;37.21;101222.66;105353;1306;61370;-81
2022/05/02 08:19:00;;;;;;;;;;;;;;;18.97;37.21;101216.04;105347;1306;72966;-81
2022/05/02 08:21:33;;;;;;;;;;;;;;;18.98;37.20;101214.41;105206;1306;75896;-81
2022/05/02 08:27:17;;;;;;;;;;;;;;;18.94;36.96;101218.72;105402;1306;62677;-81
2022/05/02 08:29:45;;;;;;;;;;;;;;;18.97;37.04;101215.33;105281;1306;72702;-81
2022/05/02 08:32:26;;;;;;;;;;;;;;;19.02;37.20;101213.95;105168;1306;75838;-81
2022/05/02 08:35:03;;;;;;;;;;;;;;;19.08;37.17;101208.13;104750;1306;59648;-81
2022/05/02 08:37:36;;;;;;;;;;;;;;;19.13;37.30;101207.34;104657;1306;61316;-79
2022/05/02 08:40:08;;;;;;;;;;;;;;;19.16;37.44;101206.94;104479;1306;72867;-80
2022/05/02 08:42:44;;;;;;;;;;;;;;;19.17;37.18;101200.13;104586;1305;75729;-79
2022/05/02 08:45:29;;;;;;;;;;;;;;;19.20;37.29;101201.94;104816;1306;61289;-80
2022/05/02 08:48:04;;;;;;;;;;;;;;;19.23;37.38;101203.90;104581;1306;61509;-80
2022/05/02 08:50:58;;;;;;;;;;;;;;;19.27;37.36;101201.91;104666;1306;73332;-81
2022/05/02 08:53:30;;;;;;;;;;;;;;;19.22;36.91;101195.92;103760;1315;74741;-80
2022/05/02 08:56:01;;;;;;;;;;;;;;;19.17;36.42;101194.79;103958;1314;61288;-82
2022/05/02 08:59:14;;;;;;;;;;;;;;;19.16;36.29;101186.62;103992;1315;61191;-81
2022/05/02 09:01:58;;;;;;;;;;;;;;;19.08;35.95;101182.77;103009;1320;74231;-80
2022/05/02 09:04:32;;;;;;;;;;;;;;;19.08;36.14;101179.05;103875;1320;74681;-81
2022/05/02 09:07:17;;;;;;;;;;;;;;;19.05;35.97;101175.27;103685;1320;60213;-81
2022/05/02 09:09:49;;;;;;;;;;;;;;;19.06;36.07;101172.90;103239;1320;62583;-81
2022/05/02 09:12:17;;;;;;;;;;;;;;;19.08;36.26;101167.27;103205;1320;73299;-79
2022/05/02 09:14:58;;;;;;;;;;;;;;;19.09;36.31;101164.00;102962;1320;74886;-81
2022/05/02 09:17:29;;;;;;;;;;;;;;;19.06;35.99;101163.80;103285;1320;61229;-79
2022/05/02 09:20:15;;;;;;;;;;;;;;;19.03;35.62;101163.46;103260;1320;61224;-81
2022/05/02 09:23:08;;;;;;;;;;;;;;;19.00;35.75;101161.16;103308;1320;73818;-81
2022/05/02 09:25:35;;;;;;;;;;;;;;;18.97;35.55;101155.23;102958;1320;75995;-81
2022/05/02 09:28:04;;;;;;;;;;;;;;;18.97;35.72;101145.44;103883;1321;61666;-82
2022/05/02 09:30:39;;;;;;;;;;;;;;;18.99;35.81;101153.52;104291;1315;59645;-82
2022/05/02 09:33:08;;;;;;;;;;;;;;;19.04;36.10;101141.45;103863;1314;72853;-82
2022/05/02 09:35:35;;;;;;;;;;;;;;;19.09;36.35;101127.42;103788;1316;75824;-80
2022/05/02 09:38:20;;;;;;;;;;;;;;;19.13;36.20;101133.11;104046;1306;61131;-81
2022/05/02 09:40:46;;;;;;;;;;;;;;;19.17;36.47;101129.28;104508;1306;61252;-83
2022/05/02 09:49:36;;;;;;;;;;;;;;;19.33;37.21;101110.73;104547;1306;60298;-81
2022/05/02 09:52:14;;;;;;;;;;;;;;;19.33;37.12;101107.48;104404;1309;59834;-80
2022/05/02 09:57:59;;;;;;;;;;;;;;;19.23;36.52;101099.84;104560;1306;75820;-80
2022/05/02 10:03:21;;;;;;;;;;;;;;;19.06;35.80;101085.30;104135;1306;61394;-79
2022/05/02 10:05:55;;;;;;;;;;;;;;;19.00;35.52;101094.02;104356;1306;73095;-82
2022/05/02 10:08:45;;;;;;;;;;;;;;;18.99;35.77;101088.05;104790;1306;75944;-82
2022/05/02 10:11:27;;;;;;;;;;;;;;;18.99;35.53;101080.73;104710;1306;62620;-80
2022/05/02 10:13:56;;;;;;;;;;;;;;;18.99;35.57;101072.53;105206;1306;61557;-82
2022/05/02 10:16:37;;;;;;;;;;;;;;;19.03;35.61;101065.90;105357;1304;73778;-82
2022/05/02 10:19:21;;;;;;;;;;;;;;;19.06;35.69;101071.02;105343;1306;74263;-82
2022/05/02 10:21:49;;;;;;;;;;;;;;;19.06;35.49;101072.46;105333;1306;60203;-82
2022/05/02 10:24:18;;;;;;;;;;;;;;;19.10;35.88;101061.70;105437;1305;60637;-81
2022/05/02 10:26:47;;;;;;;;;;;;;;;19.16;36.12;101058.33;105293;1306;74074;-82
2022/05/02 10:29:31;;;;;;;;;;;;;;;19.21;36.25;101049.99;105345;1306;74653;-81
2022/05/02 10:32:10;;;;;;;;;;;;;;;19.27;36.49;101049.86;105387;1306;60250;-82
2022/05/02 10:34:37;;;;;;;;;;;;;;;19.32;36.73;101042.58;105266;1306;60317;-82
2022/05/02 10:37:09;;;;;;;;;;;;;;;19.35;36.72;101043.27;105402;1306;73782;-82
2022/05/02 10:39:47;;;;;;;;;;;;;;;19.39;36.79;101042.19;105187;1306;74478;-82
2022/05/02 10:42:13;;;;;;;;;;;;;;;19.42;36.94;101037.70;104322;1306;61362;-82
2022/05/02 10:44:43;;;;;;;;;;;;;;;19.44;37.02;101040.81;105334;1305;59267;-82
2022/05/02 10:47:08;;;;;;;;;;;;;;;19.44;37.00;101039.74;105055;1306;72607;-81
2022/05/02 10:49:40;;;;;;;;;;;;;;;19.37;36.23;101033.88;105208;1306;59454;-82
2022/05/02 10:52:42;;;;;;;;;;;;;;;19.33;36.00;101032.35;105256;1306;60014;-82
2022/05/02 10:55:10;;;;;;;;;;;;;;;19.30;35.81;101019.13;104683;1313;60924;-82
2022/05/02 10:57:39;;;;;;;;;;;;;;;19.31;35.94;101022.49;104697;1313;74223;-82
2022/05/02 11:00:06;;;;;;;;;;;;;;;19.32;35.81;101018.34;104753;1313;75945;-82
2022/05/02 11:02:37;;;;;;;;;;;;;;;19.32;35.65;101019.73;104788;1313;61407;-82
2022/05/02 11:05:07;;;;;;;;;;;;;;;19.28;35.30;101011.02;104960;1313;62070;-82
2022/05/02 11:07:38;;;;;;;;;;;;;;;19.25;35.26;101016.02;104937;1312;72830;-82
2022/05/02 11:10:10;;;;;;;;;;;;;;;19.24;34.92;101010.26;104907;1313;74336;-83
2022/05/02 11:12:56;;;;;;;;;;;;;;;19.26;35.11;101010.66;104800;1312;60113;-82
2022/05/02 11:15:25;;;;;;;;;;;;;;;19.30;35.22;101009.69;104990;1313;60828;-81
2022/05/02 11:18:08;;;;;;;;;;;;;;;19.32;35.28;101012.78;104812;1313;73133;-82
2022/05/02 11:20:46;;;;;;;;;;;;;;;19.34;35.44;101013.90;104949;1313;73873;-82
2022/05/02 11:23:39;;;;;;;;;;;;;;;19.35;35.24;101012.24;104851;1313;60292;-82
2022/05/02 11:26:12;;;;;;;;;;;;;;;19.38;35.82;100995.83;103777;1314;60057;-82
2022/05/02 11:28:42;;;;;;;;;;;;;;;19.41;35.93;100997.98;103441;1306;61896;-80
2022/05/02 11:31:27;;;;;;;;;;;;;;;19.42;36.00;101001.27;104110;1306;75864;-80
2022/05/02 11:34:09;;;;;;;;;;;;;;;19.43;35.89;100996.89;104010;1305;62118;-80
2022/05/02 11:36:38;;;;;;;;;;;;;;;19.44;35.63;101004.04;104018;1306;61651;-79
2022/05/02 11:39:05;;;;;;;;;;;;;;;19.38;35.27;101004.19;104007;1306;72697;-80
2022/05/02 11:41:31;;;;;;;;;;;;;;;19.32;34.74;100996.94;103877;1306;75709;-79
2022/05/02 11:44:16;;;;;;;;;;;;;;;19.28;34.61;101004.84;104035;1306;61412;-80
2022/05/02 11:47:14;;;;;;;;;;;;;;;19.24;34.33;100995.96;104079;1306;61280;-81
2022/05/02 11:49:52;;;;;;;;;;;;;;;19.22;34.21;100985.39;103256;1314;72891;-81
2022/05/02 11:52:29;;;;;;;;;;;;;;;19.22;34.32;100986.60;103405;1313;74971;-80
2022/05/02 11:54:56;;;;;;;;;;;;;;;19.24;34.61;100997.52;104843;1313;61068;-80
2022/05/02 11:57:25;;;;;;;;;;;;;;;19.25;34.69;100997.69;104762;1313;59438;-80
2022/05/02 12:00:11;;;;;;;;;;;;;;;19.26;34.76;100995.62;104848;1313;72931;-80
2022/05/02 12:02:45;;;;;;;;;;;;;;;19.30;34.96;100993.45;104930;1313;75795;-80
2022/05/02 12:05:18;;;;;;;;;;;;;;;19.32;35.01;100983.34;104903;1312;59525;-80
2022/05/02 12:07:43;;;;;;;;;;;;;;;19.35;35.35;100975.49;104768;1314;59132;-81
2022/05/02 12:10:09;;;;;;;;;;;;;;;19.39;35.70;100968.64;104632;1314;59587;-79
2022/05/02 12:12:34;;;;;;;;;;;;;;;19.43;35.84;100965.16;104789;1314;59365;-80
2022/05/02 12:15:03;;;;;;;;;;;;;;;19.46;36.07;100955.69;104879;1312;59289;-79
2022/05/02 12:17:29;;;;;;;;;;;;;;;19.50;35.98;100954.41;104723;1314;59522;-80
2022/05/02 12:19:54;;;;;;;;;;;;;;;19.52;36.28;100948.58;104333;1314;61250;-80
2022/05/02 12:22:24;;;;;;;;;;;;;;;19.54;36.24;100945.02;103604;1314;61315;-80
2022/05/02 12:24:54;;;;;;;;;;;;;;;19.55;36.32;100939.59;103638;1308;61247;-79
2022/05/02 12:27:29;;;;;;;;;;;;;;;19.57;36.45;100937.67;103947;1306;61284;-82
2022/05/02 12:29:57;;;;;;;;;;;;;;;19.58;36.34;100931.73;104401;1306;72582;-82
2022/05/02 12:32:26;;;;;;;;;;;;;;;19.59;36.36;100930.09;104791;1306;75745;-80
2022/05/02 12:34:59;;;;;;;;;;;;;;;19.60;36.36;100929.67;104654;1306;61394;-80
2022/05/02 12:37:51;;;;;;;;;;;;;;;19.60;36.40;100922.34;104343;1306;61473;-80
2022/05/02 12:40:19;;;;;;;;;;;;;;;19.60;36.54;100924.32;104405;1306;72793;-80
2022/05/02 12:42:50;;;;;;;;;;;;;;;19.60;36.64;100919.48;104275;1306;75845;-83
2022/05/02 12:45:27;;;;;;;;;;;;;;;19.59;36.56;100922.38;104497;1306;61420;-81
2022/05/02 12:47:57;;;;;;;;;;;;;;;19.57;36.10;100923.75;104289;1306;59910;-81
2022/05/02 12:50:27;;;;;;;;;;;;;;;19.53;36.04;100919.38;104464;1306;73173;-80
2022/05/02 12:52:56;;;;;;;;;;;;;;;19.49;35.73;100912.49;104461;1306;75826;-80
2022/05/02 12:55:29;;;;;;;;;;;;;;;19.49;35.89;100909.67;104431;1307;61476;-81
2022/05/02 13:00:58;;;;;;;;;;;;;;;19.50;35.72;100892.65;104532;1305;72444;-81
2022/05/02 13:03:30;;;;;;;;;;;;;;;19.49;35.63;100897.52;104405;1306;75738;-78
2022/05/02 13:06:15;;;;;;;;;;;;;;;19.49;35.75;100903.04;104961;1306;61294;-80
2022/05/02 13:09:02;;;;;;;;;;;;;;;19.50;35.76;100900.86;104311;1309;61359;-80
2022/05/02 13:11:43;;;;;;;;;;;;;;;19.51;35.91;100901.71;104000;1312;72859;-81
2022/05/02 13:14:24;;;;;;;;;;;;;;;19.51;35.78;100904.52;104270;1312;74656;-83
2022/05/02 13:17:05;;;;;;;;;;;;;;;19.52;35.71;100899.83;104314;1312;61462;-81
2022/05/02 13:19:43;;;;;;;;;;;;;;;19.52;35.90;100893.90;104153;1311;61467;-82
2022/05/02 13:22:33;;;;;;;;;;;;;;;19.52;35.99;100883.91;104293;1311;73982;-82
2022/05/02 13:25:23;;;;;;;;;;;;;;;19.53;35.92;100881.04;104217;1312;74178;-85
2022/05/02 13:27:51;;;;;;;;;;;;;;;19.53;35.99;100889.94;104252;1311;62716;-78
2022/05/02 13:30:33;;;;;;;;;;;;;;;19.53;36.04;100887.60;104256;1311;61256;-81
2022/05/02 13:33:10;;;;;;;;;;;;;;;19.54;36.23;100882.77;104196;1314;72558;-81
2022/05/02 13:36:02;;;;;;;;;;;;;;;19.54;36.25;100881.86;104341;1312;74783;-85
2022/05/02 13:38:49;;;;;;;;;;;;;;;19.55;36.12;100881.92;104299;1310;61353;-81
2022/05/02 13:41:32;;;;;;;;;;;;;;;19.57;36.45;100874.69;104457;1305;61399;-81
2022/05/02 13:44:38;;;;;;;;;;;;;;;19.58;36.56;100872.48;104391;1306;72890;-86
2022/05/02 13:47:32;;;;;;;;;;;;;;;19.59;36.62;100870.10;104429;1308;74705;-81
2022/05/02 13:50:43;;;;;;;;;;;;;;;;;;;;;
2022/05/02 13:53:42;;;;;;;;;;;;;;;19.61;36.68;100865.52;104073;1317;61817;-82
2022/05/02 13:56:42;;;;;;;;;;;;;;;19.62;36.70;100863.84;103808;1317;74386;-83
2022/05/02 13:59:16;;;;;;;;;;;;;;;19.62;36.86;100861.16;104092;1317;73792;-79
2022/05/02 14:02:03;;;;;;;;;;;;;;;19.63;36.88;100858.27;104123;1317;61311;-82
2022/05/02 14:07:47;;;;;;;;;;;;;;;19.65;37.04;100850.25;103520;1317;72949;-82
2022/05/02 14:10:38;;;;;;;;;;;;;;;19.66;37.30;100844.10;103986;1314;75862;-82
2022/05/02 14:13:16;;;;;;;;;;;;;;;19.67;37.23;100837.28;104088;1315;61808;-83
2022/05/02 14:15:51;;;;;;;;;;;;;;;19.68;37.27;100835.05;104003;1314;61353;-80
2022/05/02 14:18:22;;;;;;;;;;;;;;;19.69;37.39;100842.88;103960;1317;73048;-81
2022/05/02 14:21:07;;;;;;;;;;;;;;;19.70;37.38;100844.94;103852;1316;74343;-82
2022/05/02 14:23:33;;;;;;;;;;;;;;;19.71;37.52;100845.77;104042;1314;61307;-80
2022/05/02 14:26:14;;;;;;;;;;;;;;;19.73;37.65;100844.94;103979;1314;61221;-82